Time;durP1;ratioP1;P1;durP2;ratioP2;P2;SDS_P1;SDS_P2;PMS_P1;PMS_P2;Temp;Humidity;BMP_temperature;BMP_pressure;BME280_temperature;BME280_humidity;BME280_pressure;Samples;Min_cycle;Max_cycle;Signal;HPM_P1;HPM_P2
2024/03/03 00:00:24;;;;;;;27.97;19.73;;;8.10;99.90;;;;;;5029265;28;20639;-80
2024/03/03 00:02:51;;;;;;;33.03;20.97;;;8.10;99.90;;;;;;5028601;28;20635;-80
2024/03/03 00:05:19;;;;;;;28.23;19.37;;;8.00;99.90;;;;;;5033516;28;20619;-79
2024/03/03 00:07:46;;;;;;;28.73;19.67;;;8.00;99.90;;;;;;5031134;28;20722;-80
2024/03/03 00:10:13;;;;;;;27.07;19.07;;;8.00;99.90;;;;;;5030733;28;21076;-79
2024/03/03 00:12:40;;;;;;;30.77;20.20;;;8.00;99.90;;;;;;5030903;28;20993;-79
2024/03/03 00:15:07;;;;;;;28.00;19.00;;;8.00;99.90;;;;;;5026813;28;21002;-79
2024/03/03 00:17:34;;;;;;;27.40;19.50;;;7.80;99.90;;;;;;5030187;28;21094;-80
2024/03/03 00:20:02;;;;;;;23.33;19.33;;;7.70;99.90;;;;;;5031840;28;20632;-80
2024/03/03 00:22:30;;;;;;;28.50;20.67;;;7.70;99.90;;;;;;5031454;28;20628;-80
2024/03/03 00:24:56;;;;;;;28.90;19.03;;;7.70;99.90;;;;;;5031514;28;20626;-80
2024/03/03 00:27:25;;;;;;;34.13;20.60;;;7.60;99.90;;;;;;5027089;28;20762;-80
2024/03/03 00:29:52;;;;;;;30.03;20.00;;;7.70;99.90;;;;;;5028026;28;20724;-80
2024/03/03 00:32:19;;;;;;;30.37;19.50;;;7.70;99.90;;;;;;5029996;28;20723;-80
2024/03/03 00:34:46;;;;;;;33.37;20.50;;;7.70;99.90;;;;;;5031361;28;20631;-80
2024/03/03 00:37:18;;;;;;;33.70;20.50;;;7.70;99.90;;;;;;5030165;28;20631;-80
2024/03/03 00:39:46;;;;;;;32.83;20.60;;;7.70;99.90;;;;;;5030573;28;20634;-80
2024/03/03 00:42:13;;;;;;;27.47;19.60;;;7.60;99.90;;;;;;5026520;28;21148;-80
2024/03/03 00:44:39;;;;;;;29.87;19.10;;;7.70;99.90;;;;;;5030539;28;20624;-80
2024/03/03 00:47:06;;;;;;;28.57;20.73;;;7.70;99.90;;;;;;5030353;28;20633;-80
2024/03/03 00:49:33;;;;;;;32.57;20.87;;;7.70;99.90;;;;;;5029991;28;21038;-80
2024/03/03 00:52:01;;;;;;;29.10;21.70;;;7.80;99.90;;;;;;5028899;28;21201;-80
2024/03/03 00:54:28;;;;;;;37.33;22.33;;;7.80;99.90;;;;;;5027540;28;20633;-81
2024/03/03 00:56:56;;;;;;;34.87;20.47;;;7.80;99.90;;;;;;5027951;28;21052;-80
2024/03/03 00:59:23;;;;;;;34.57;21.00;;;7.80;99.90;;;;;;5030916;28;20636;-80
2024/03/03 01:01:49;;;;;;;28.97;19.10;;;7.90;99.90;;;;;;5030122;28;20630;-80
2024/03/03 01:04:16;;;;;;;27.53;20.70;;;7.80;99.90;;;;;;5029083;28;21152;-80
2024/03/03 01:06:43;;;;;;;32.60;21.87;;;7.70;99.90;;;;;;5052163;28;20750;-80
2024/03/03 01:09:10;;;;;;;35.43;21.73;;;7.80;99.90;;;;;;5030036;28;20659;-80
2024/03/03 01:11:38;;;;;;;29.70;21.23;;;7.90;99.90;;;;;;5032161;28;21200;-80
2024/03/03 01:14:09;;;;;;;35.03;19.57;;;7.90;99.90;;;;;;5029313;28;20642;-80
2024/03/03 01:16:35;;;;;;;29.70;20.00;;;7.90;99.90;;;;;;5028370;28;20685;-80
2024/03/03 01:19:02;;;;;;;32.67;20.40;;;7.80;99.90;;;;;;5062332;28;20729;-80
2024/03/03 01:21:30;;;;;;;28.00;19.17;;;7.80;99.90;;;;;;5029524;28;20674;-80
2024/03/03 01:23:57;;;;;;;33.77;21.60;;;7.80;99.90;;;;;;5031346;28;20644;-80
2024/03/03 01:26:23;;;;;;;29.90;19.93;;;7.80;99.90;;;;;;5031785;28;20646;-80
2024/03/03 01:28:51;;;;;;;33.97;21.40;;;7.80;99.90;;;;;;5031968;28;20643;-80
2024/03/03 01:31:19;;;;;;;31.37;20.93;;;7.70;99.90;;;;;;5031448;28;20667;-80
2024/03/03 01:33:46;;;;;;;27.63;18.67;;;7.70;99.90;;;;;;5030676;28;20762;-80
2024/03/03 01:36:13;;;;;;;34.87;21.43;;;7.50;99.90;;;;;;5028024;28;20631;-80
2024/03/03 01:38:40;;;;;;;32.13;20.17;;;7.40;99.90;;;;;;5031076;28;20636;-80
2024/03/03 01:41:07;;;;;;;31.47;22.10;;;7.40;99.90;;;;;;5031614;28;20740;-80
2024/03/03 01:43:34;;;;;;;33.80;20.90;;;7.30;99.90;;;;;;5030951;28;20643;-80
2024/03/03 01:46:01;;;;;;;27.13;20.03;;;7.30;99.90;;;;;;5042183;27;20637;-80
2024/03/03 01:48:29;;;;;;;27.83;18.90;;;7.20;99.90;;;;;;5028296;28;20637;-79
2024/03/03 01:50:57;;;;;;;28.97;19.57;;;7.30;99.90;;;;;;5024754;28;20667;-79
2024/03/03 01:53:25;;;;;;;27.73;19.03;;;7.40;99.90;;;;;;5029379;28;21171;-80
2024/03/03 01:55:52;;;;;;;33.70;21.40;;;7.30;99.90;;;;;;5029682;28;20633;-80
2024/03/03 01:58:19;;;;;;;30.17;20.67;;;7.30;99.90;;;;;;5029581;28;20633;-80
2024/03/03 02:00:46;;;;;;;26.90;19.37;;;7.40;99.90;;;;;;5028627;28;20730;-80
2024/03/03 02:03:14;;;;;;;29.60;21.00;;;7.30;99.90;;;;;;5027840;28;20638;-80
2024/03/03 02:05:42;;;;;;;29.33;18.93;;;7.30;99.90;;;;;;5029184;28;20719;-80
2024/03/03 02:08:10;;;;;;;30.83;18.77;;;7.20;99.90;;;;;;5028813;28;20726;-80
2024/03/03 02:10:39;;;;;;;30.07;18.60;;;7.10;99.90;;;;;;5042693;27;20724;-80
2024/03/03 02:13:05;;;;;;;25.67;18.47;;;7.00;99.90;;;;;;5039972;27;20674;-80
2024/03/03 02:15:32;;;;;;;33.97;21.87;;;7.00;99.90;;;;;;5027546;28;20730;-80
2024/03/03 02:18:00;;;;;;;35.37;22.50;;;7.00;99.90;;;;;;5027416;28;21071;-80
2024/03/03 02:20:29;;;;;;;30.37;22.60;;;7.00;99.90;;;;;;5043671;27;20627;-79
2024/03/03 02:22:58;;;;;;;35.10;23.00;;;7.00;99.90;;;;;;5028316;28;21249;-79
2024/03/03 02:25:26;;;;;;;38.23;23.60;;;7.00;99.90;;;;;;5037874;27;21199;-80
2024/03/03 02:27:53;;;;;;;37.43;24.20;;;7.00;99.90;;;;;;5028283;28;20654;-80
2024/03/03 02:30:20;;;;;;;32.40;23.57;;;7.00;99.90;;;;;;5026769;28;20663;-80
2024/03/03 02:32:47;;;;;;;43.63;26.70;;;6.90;99.90;;;;;;5028041;28;20643;-79
2024/03/03 02:35:14;;;;;;;33.67;23.23;;;6.80;99.90;;;;;;5027573;28;21164;-79
2024/03/03 02:37:45;;;;;;;34.77;22.40;;;6.80;99.90;;;;;;5027048;28;20655;-79
2024/03/03 02:40:14;;;;;;;31.90;21.37;;;6.70;99.90;;;;;;5027244;28;21052;-80
2024/03/03 02:42:42;;;;;;;37.10;24.30;;;6.80;99.90;;;;;;5027507;28;20765;-80
2024/03/03 02:45:10;;;;;;;42.87;24.00;;;6.80;99.90;;;;;;5027425;28;20627;-79
2024/03/03 02:47:37;;;;;;;40.57;25.03;;;6.90;99.90;;;;;;5027061;28;20631;-79
2024/03/03 02:50:05;;;;;;;40.93;25.37;;;6.90;99.90;;;;;;5026857;28;21192;-80
2024/03/03 02:52:33;;;;;;;38.40;24.43;;;6.90;99.90;;;;;;5026961;28;20631;-80
2024/03/03 02:55:02;;;;;;;45.30;25.97;;;7.00;99.90;;;;;;5028079;28;20665;-80
2024/03/03 02:57:31;;;;;;;35.70;23.27;;;6.90;99.90;;;;;;5033135;28;20641;-80
2024/03/03 03:00:00;;;;;;;37.43;24.17;;;7.10;99.90;;;;;;5034684;28;20653;-80
2024/03/03 03:02:27;;;;;;;35.87;23.57;;;6.90;99.90;;;;;;5034464;28;20632;-80
2024/03/03 03:04:58;;;;;;;36.47;24.30;;;6.80;99.90;;;;;;5033950;28;21553;-80
2024/03/03 03:07:27;;;;;;;32.10;22.70;;;6.90;99.90;;;;;;5030304;28;20638;-80
2024/03/03 03:09:55;;;;;;;39.72;23.60;;;6.80;99.90;;;;;;5029552;28;20691;-80
2024/03/03 03:12:23;;;;;;;31.67;21.60;;;6.80;99.90;;;;;;5034121;28;20221;-80
2024/03/03 03:14:51;;;;;;;40.70;23.67;;;6.70;99.90;;;;;;5033872;28;20634;-80
2024/03/03 03:17:20;;;;;;;36.43;23.50;;;6.50;99.90;;;;;;5032702;28;20708;-80
2024/03/03 03:19:47;;;;;;;32.97;21.58;;;6.40;99.90;;;;;;5033045;28;20733;-80
2024/03/03 03:22:17;;;;;;;36.45;22.30;;;6.70;99.90;;;;;;5028507;28;20246;-80
2024/03/03 03:24:47;;;;;;;39.40;21.87;;;6.40;99.90;;;;;;5030147;28;20204;-80
2024/03/03 03:27:14;;;;;;;34.07;20.33;;;6.40;99.90;;;;;;5032318;28;20719;-80
2024/03/03 03:29:41;;;;;;;33.33;21.17;;;7.00;99.90;;;;;;5032812;28;21434;-79
2024/03/03 03:32:09;;;;;;;33.42;22.08;;;6.60;99.90;;;;;;5032508;28;20614;-80
2024/03/03 03:34:36;;;;;;;38.60;21.97;;;6.40;99.90;;;;;;5030716;28;20199;-80
2024/03/03 03:37:04;;;;;;;34.37;21.60;;;6.30;99.90;;;;;;5027441;28;20635;-80
2024/03/03 03:39:31;;;;;;;34.40;22.88;;;6.40;99.90;;;;;;5031977;28;20627;-80
2024/03/03 03:41:59;;;;;;;34.43;23.50;;;6.40;99.90;;;;;;5030780;28;20265;-79
2024/03/03 03:44:27;;;;;;;31.73;21.25;;;6.50;99.90;;;;;;5029599;28;20631;-80
2024/03/03 03:46:55;;;;;;;31.60;21.20;;;6.50;99.90;;;;;;5029984;28;20273;-80
2024/03/03 03:49:24;;;;;;;27.08;20.13;;;6.50;99.90;;;;;;5034092;27;20642;-80
2024/03/03 03:51:54;;;;;;;35.63;21.70;;;6.40;99.90;;;;;;5045141;27;20237;-80
2024/03/03 03:54:21;;;;;;;37.22;21.10;;;6.50;99.90;;;;;;5028985;28;20740;-80
2024/03/03 03:56:49;;;;;;;38.30;22.70;;;6.50;99.90;;;;;;5030546;28;20205;-79
2024/03/03 03:59:15;;;;;;;31.83;20.55;;;6.50;99.90;;;;;;5031155;28;20650;-79
2024/03/03 04:01:42;;;;;;;40.17;22.17;;;6.60;99.90;;;;;;5029494;28;20807;-80
2024/03/03 04:04:10;;;;;;;34.97;22.42;;;6.60;99.90;;;;;;5026963;28;20707;-80
2024/03/03 04:06:38;;;;;;;32.03;20.90;;;6.60;99.90;;;;;;5030315;28;20215;-79
2024/03/03 04:09:05;;;;;;;32.73;20.80;;;6.60;99.90;;;;;;5030765;28;21191;-80
2024/03/03 04:11:32;;;;;;;38.97;24.25;;;6.60;99.90;;;;;;5030460;28;20667;-80
2024/03/03 04:13:59;;;;;;;34.35;22.80;;;6.60;99.90;;;;;;5030671;28;20200;-80
2024/03/03 04:16:26;;;;;;;33.30;22.10;;;6.60;99.90;;;;;;5025637;28;20287;-80
2024/03/03 04:18:52;;;;;;;39.10;22.08;;;6.30;99.90;;;;;;5029121;28;20197;-80
2024/03/03 04:21:20;;;;;;;36.22;22.80;;;6.60;99.90;;;;;;5029906;28;20265;-80
2024/03/03 04:23:48;;;;;;;41.00;23.38;;;6.70;99.90;;;;;;5029541;28;20196;-80
2024/03/03 04:26:15;;;;;;;36.50;23.00;;;6.60;99.90;;;;;;5028685;28;20741;-80
2024/03/03 04:28:41;;;;;;;34.30;22.23;;;6.70;99.90;;;;;;5027890;28;20633;-80
2024/03/03 04:31:08;;;;;;;35.05;21.58;;;6.70;99.90;;;;;;5026525;28;20229;-79
2024/03/03 04:33:35;;;;;;;35.13;21.67;;;6.60;99.90;;;;;;5029191;28;20291;-80
2024/03/03 04:36:02;;;;;;;35.15;21.58;;;6.50;99.90;;;;;;5028343;28;20268;-79
2024/03/03 04:38:29;;;;;;;40.00;24.83;;;6.60;99.90;;;;;;5029520;28;20200;-80
2024/03/03 04:40:57;;;;;;;37.00;22.02;;;6.60;99.90;;;;;;5028801;28;20276;-80
2024/03/03 04:43:24;;;;;;;45.80;23.83;;;6.50;99.90;;;;;;5025313;28;20564;-79
2024/03/03 04:45:51;;;;;;;38.03;23.25;;;6.60;99.90;;;;;;5025163;28;20660;-79
2024/03/03 04:48:18;;;;;;;36.85;22.88;;;6.60;99.90;;;;;;5028498;28;20199;-80
2024/03/03 04:50:45;;;;;;;33.03;22.30;;;6.50;99.90;;;;;;5041526;28;20583;-80
2024/03/03 04:53:11;;;;;;;35.85;23.05;;;6.40;99.90;;;;;;5068734;28;20642;-79
2024/03/03 04:55:38;;;;;;;34.65;21.83;;;6.40;99.90;;;;;;5042034;28;20304;-79
2024/03/03 04:58:07;;;;;;;31.45;21.35;;;6.30;99.90;;;;;;5034483;28;20201;-79
2024/03/03 05:00:33;;;;;;;30.98;21.50;;;6.30;99.90;;;;;;5027397;28;20295;-79
2024/03/03 05:03:00;;;;;;;36.05;23.23;;;6.20;99.90;;;;;;5027564;28;20197;-79
2024/03/03 05:05:27;;;;;;;33.20;20.42;;;6.10;99.90;;;;;;5027708;28;20224;-79
2024/03/03 05:07:54;;;;;;;40.37;22.03;;;6.10;99.90;;;;;;5024095;28;20296;-80
2024/03/03 05:10:21;;;;;;;36.95;21.02;;;6.20;99.90;;;;;;5048731;28;20764;-79
2024/03/03 05:12:49;;;;;;;33.20;21.93;;;6.20;99.90;;;;;;5045235;28;20201;-79
2024/03/03 05:15:18;;;;;;;39.90;21.35;;;6.20;99.90;;;;;;5036151;28;20627;-79
2024/03/03 05:17:44;;;;;;;30.45;21.75;;;6.40;99.90;;;;;;5029559;28;20204;-79
2024/03/03 05:20:12;;;;;;;35.40;21.20;;;6.30;99.90;;;;;;5035670;28;20629;-79
2024/03/03 05:22:39;;;;;;;32.85;21.30;;;6.20;99.90;;;;;;5037402;28;20571;-79
2024/03/03 05:25:06;;;;;;;36.05;22.05;;;6.30;99.90;;;;;;5029636;28;20201;-79
2024/03/03 05:27:34;;;;;;;31.00;20.15;;;;;;;;;;5030015;28;20196;-79
2024/03/03 05:30:01;;;;;;;34.17;19.10;;;6.30;99.90;;;;;;5030321;28;20202;-79
2024/03/03 05:32:29;;;;;;;33.13;19.95;;;6.40;99.90;;;;;;5026815;28;20469;-79
2024/03/03 05:34:56;;;;;;;34.72;22.55;;;6.30;99.90;;;;;;5027398;28;20565;-79
2024/03/03 05:37:23;;;;;;;34.97;20.98;;;6.30;99.90;;;;;;5029340;28;20205;-80
2024/03/03 05:39:50;;;;;;;35.20;21.90;;;6.30;99.90;;;;;;5029575;28;20209;-79
2024/03/03 05:42:17;;;;;;;34.67;23.13;;;6.50;99.90;;;;;;5029406;28;20205;-79
2024/03/03 05:44:43;;;;;;;28.63;20.75;;;6.30;99.90;;;;;;5028021;28;20192;-79
2024/03/03 05:47:10;;;;;;;41.88;22.52;;;6.30;99.90;;;;;;5025227;28;20209;-79
2024/03/03 05:49:38;;;;;;;35.15;21.55;;;6.30;99.90;;;;;;5028775;28;20295;-80
2024/03/03 05:52:05;;;;;;;33.03;20.95;;;6.20;99.90;;;;;;5028734;28;20247;-80
2024/03/03 05:54:32;;;;;;;35.55;21.67;;;6.20;99.90;;;;;;5028680;28;20247;-79
2024/03/03 05:56:59;;;;;;;29.08;19.63;;;6.30;99.90;;;;;;5028008;28;20285;-79
2024/03/03 05:59:25;;;;;;;37.65;21.73;;;6.10;99.90;;;;;;5025111;28;20291;-79
2024/03/03 06:01:54;;;;;;;36.47;21.38;;;6.10;99.90;;;;;;5028170;28;20286;-79
2024/03/03 06:04:21;;;;;;;28.10;20.15;;;6.10;99.90;;;;;;5028235;28;20217;-79
2024/03/03 06:06:49;;;;;;;35.55;20.75;;;6.10;99.90;;;;;;5029918;28;20205;-79
2024/03/03 06:09:16;;;;;;;29.17;19.35;;;6.10;99.90;;;;;;5031393;28;20899;-80
2024/03/03 06:11:43;;;;;;;34.55;19.67;;;6.10;99.90;;;;;;5029255;28;20223;-80
2024/03/03 06:14:10;;;;;;;33.22;20.90;;;6.20;99.90;;;;;;5029183;28;20288;-79
2024/03/03 06:16:38;;;;;;;31.83;20.60;;;6.20;99.90;;;;;;5030009;28;20196;-79
2024/03/03 06:19:06;;;;;;;28.02;19.08;;;6.20;99.90;;;;;;5030795;28;20211;-80
2024/03/03 06:21:33;;;;;;;25.27;20.05;;;6.10;99.90;;;;;;5031145;28;20545;-79
2024/03/03 06:24:01;;;;;;;31.98;20.92;;;6.20;99.90;;;;;;5028257;28;20201;-80
2024/03/03 06:26:30;;;;;;;32.05;19.27;;;6.10;99.90;;;;;;5026587;28;20243;-80
2024/03/03 06:28:57;;;;;;;31.13;19.83;;;6.20;99.90;;;;;;5044241;27;20208;-80
2024/03/03 06:31:24;;;;;;;26.42;18.95;;;6.30;99.90;;;;;;5029670;28;20228;-80
2024/03/03 06:33:50;;;;;;;32.50;19.38;;;6.30;99.90;;;;;;5024952;28;20209;-80
2024/03/03 06:36:18;;;;;;;34.58;19.98;;;6.30;99.90;;;;;;5029998;28;20197;-80
2024/03/03 06:38:45;;;;;;;34.50;19.70;;;6.40;99.90;;;;;;5028465;28;20579;-79
2024/03/03 06:41:13;;;;;;;28.88;20.77;;;6.40;99.90;;;;;;5028246;28;20208;-80
2024/03/03 06:43:41;;;;;;;29.27;19.95;;;6.50;99.90;;;;;;5028891;28;20536;-79
2024/03/03 06:46:08;;;;;;;31.60;20.42;;;6.70;99.90;;;;;;5067670;27;20200;-80
2024/03/03 06:48:35;;;;;;;33.30;18.48;;;6.50;99.90;;;;;;5029280;28;20211;-74
2024/03/03 06:51:02;;;;;;;29.63;19.63;;;6.50;99.90;;;;;;5041878;27;20212;-81
2024/03/03 06:53:32;;;;;;;28.88;19.15;;;6.60;99.90;;;;;;5060195;27;20204;-81
2024/03/03 06:55:58;;;;;;;33.13;20.83;;;6.60;99.90;;;;;;5091996;27;20201;-78
2024/03/03 06:58:28;;;;;;;33.53;20.80;;;6.70;99.90;;;;;;5079772;27;20318;-86
2024/03/03 07:00:55;;;;;;;28.87;19.37;;;6.80;99.90;;;;;;5059162;27;20613;-75
2024/03/03 07:03:49;;;;;;;35.60;18.87;;;6.90;99.90;;;;;;5063576;27;20657;-76
2024/03/03 07:06:16;;;;;;;29.13;18.93;;;6.90;99.90;;;;;;5047313;27;20631;-81
2024/03/03 07:08:43;;;;;;;31.70;19.80;;;7.00;99.90;;;;;;5054124;27;20747;-82
2024/03/03 07:11:10;;;;;;;30.97;20.10;;;7.10;99.90;;;;;;5031152;27;20777;-84
2024/03/03 07:13:38;;;;;;;31.07;19.47;;;7.30;99.90;;;;;;5037063;27;20641;-84
2024/03/03 07:16:06;;;;;;;28.10;19.03;;;7.60;99.90;;;;;;5060184;27;20636;-84
2024/03/03 07:18:33;;;;;;;22.60;16.23;;;7.80;99.90;;;;;;5030184;27;20631;-84
2024/03/03 07:20:59;;;;;;;26.43;18.13;;;8.10;99.90;;;;;;5026597;28;20640;-84
2024/03/03 07:23:26;;;;;;;28.53;17.50;;;8.00;99.90;;;;;;5026286;28;20620;-85
2024/03/03 07:25:53;;;;;;;22.83;16.40;;;8.10;99.90;;;;;;5026258;28;20696;-84
2024/03/03 07:28:20;;;;;;;21.80;16.07;;;7.90;99.90;;;;;;5041334;27;20630;-87
2024/03/03 07:30:48;;;;;;;24.10;17.40;;;7.80;99.90;;;;;;5026409;28;20730;-86
2024/03/03 07:33:15;;;;;;;25.17;17.07;;;7.90;99.90;;;;;;5025627;28;20700;-86
2024/03/03 07:35:41;;;;;;;28.30;17.27;;;7.90;99.90;;;;;;5025623;28;20635;-84
2024/03/03 07:38:08;;;;;;;22.67;16.80;;;7.90;99.90;;;;;;5033587;28;20983;-86
2024/03/03 07:40:37;;;;;;;30.30;17.80;;;8.20;99.90;;;;;;5033447;28;20726;-85
2024/03/03 07:43:04;;;;;;;24.17;16.43;;;7.90;99.90;;;;;;5032723;28;20738;-83
2024/03/03 07:45:30;;;;;;;23.93;16.17;;;7.90;99.90;;;;;;5029630;28;21155;-73
2024/03/03 07:47:59;;;;;;;23.77;16.67;;;7.80;99.90;;;;;;5029445;28;20638;-79
2024/03/03 07:50:25;;;;;;;25.90;16.20;;;7.90;99.90;;;;;;5032873;28;20630;-76
2024/03/03 07:52:52;;;;;;;24.73;17.10;;;7.80;99.90;;;;;;5031959;28;20679;-77
2024/03/03 07:55:19;;;;;;;18.70;14.73;;;7.90;99.90;;;;;;5033588;28;20626;-77
2024/03/03 07:57:46;;;;;;;30.37;19.07;;;7.90;99.90;;;;;;5042031;27;21001;-77
2024/03/03 08:00:14;;;;;;;23.27;15.23;;;7.80;99.90;;;;;;5029652;27;20632;-82
2024/03/03 08:02:41;;;;;;;21.13;16.80;;;7.60;99.90;;;;;;5057837;27;20866;-82
2024/03/03 08:05:09;;;;;;;23.10;17.63;;;7.80;99.90;;;;;;5065809;27;20635;-77
2024/03/03 08:07:36;;;;;;;26.93;17.10;;;7.80;99.90;;;;;;5032706;28;20730;-76
2024/03/03 08:10:05;;;;;;;21.90;14.77;;;7.90;99.90;;;;;;5030063;28;20627;-78
2024/03/03 08:12:31;;;;;;;24.40;16.60;;;7.90;99.90;;;;;;5041040;27;20701;-78
2024/03/03 08:15:00;;;;;;;19.07;14.50;;;8.00;99.90;;;;;;5060920;27;20982;-84
2024/03/03 08:17:26;;;;;;;20.27;14.37;;;8.00;99.90;;;;;;5030356;28;20634;-78
2024/03/03 08:19:53;;;;;;;21.47;15.60;;;8.00;99.90;;;;;;5032547;28;20730;-80
2024/03/03 08:22:21;;;;;;;21.77;14.60;;;8.10;99.90;;;;;;5032414;28;20626;-80
2024/03/03 08:24:48;;;;;;;23.83;15.73;;;;;;;;;;5030424;28;21181;-82
2024/03/03 08:27:15;;;;;;;22.83;16.30;;;8.10;99.90;;;;;;5027024;28;20730;-77
2024/03/03 08:29:42;;;;;;;18.97;14.50;;;8.20;99.90;;;;;;5031548;28;20764;-76
2024/03/03 08:32:09;;;;;;;19.47;15.13;;;8.20;99.90;;;;;;5031384;28;21310;-77
2024/03/03 08:34:36;;;;;;;20.33;15.60;;;8.30;99.90;;;;;;5031467;28;20632;-77
2024/03/03 08:37:03;;;;;;;20.13;15.03;;;8.30;99.90;;;;;;5030316;28;21275;-76
2024/03/03 08:39:31;;;;;;;21.53;14.60;;;8.40;99.90;;;;;;5027113;28;20719;-73
2024/03/03 08:41:58;;;;;;;22.83;13.70;;;8.40;99.90;;;;;;5027907;28;20642;-73
2024/03/03 08:44:24;;;;;;;17.97;13.73;;;8.50;99.90;;;;;;5030674;28;21051;-73
2024/03/03 08:46:51;;;;;;;20.03;14.83;;;8.50;99.90;;;;;;5030310;28;20636;-74
2024/03/03 08:49:19;;;;;;;16.97;13.57;;;8.60;99.90;;;;;;5030802;28;20627;-74
2024/03/03 08:51:46;;;;;;;18.70;13.70;;;8.70;99.90;;;;;;5028813;28;20714;-73
2024/03/03 08:54:13;;;;;;;18.83;13.40;;;8.70;99.90;;;;;;5025479;28;20634;-76
2024/03/03 08:56:42;;;;;;;18.40;14.27;;;8.80;99.90;;;;;;5029664;28;20643;-75
2024/03/03 08:59:09;;;;;;;19.27;13.13;;;8.80;99.90;;;;;;5029520;28;20629;-75
2024/03/03 09:01:37;;;;;;;15.77;13.73;;;8.90;99.90;;;;;;5029958;28;20616;-74
2024/03/03 09:04:04;;;;;;;18.70;13.57;;;8.90;99.90;;;;;;5029626;28;20621;-75
2024/03/03 09:06:31;;;;;;;16.77;13.10;;;9.00;99.90;;;;;;5025351;28;20731;-73
2024/03/03 09:08:58;;;;;;;18.90;13.30;;;9.00;99.80;;;;;;5028778;28;21177;-74
2024/03/03 09:11:25;;;;;;;21.97;13.20;;;;;;;;;;5026732;28;20728;-73
2024/03/03 09:13:53;;;;;;;20.83;14.53;;;9.20;99.20;;;;;;5028588;28;21024;-72
2024/03/03 09:16:20;;;;;;;15.53;12.20;;;9.30;99.60;;;;;;5028198;28;20631;-72
2024/03/03 09:18:49;;;;;;;18.37;12.83;;;9.20;99.60;;;;;;5027491;28;20641;-72
2024/03/03 09:21:16;;;;;;;18.43;12.53;;;9.30;99.80;;;;;;5025802;28;21025;-71
2024/03/03 09:23:42;;;;;;;16.73;13.50;;;9.40;99.90;;;;;;5028666;28;20644;-72
2024/03/03 09:26:09;;;;;;;16.63;12.17;;;9.40;99.80;;;;;;5027645;28;20637;-71
2024/03/03 09:28:36;;;;;;;16.60;13.23;;;9.40;99.60;;;;;;5028447;28;20662;-72
2024/03/03 09:31:05;;;;;;;20.77;13.77;;;9.60;99.90;;;;;;5027940;28;20722;-71
2024/03/03 09:33:31;;;;;;;18.70;14.67;;;9.60;99.30;;;;;;5024946;28;20705;-71
2024/03/03 09:35:58;;;;;;;16.53;11.40;;;9.70;98.90;;;;;;5027356;28;20745;-84
2024/03/03 09:38:25;;;;;;;15.77;11.87;;;9.80;99.10;;;;;;5027756;28;20646;-81
2024/03/03 09:40:52;;;;;;;16.17;11.90;;;9.90;99.10;;;;;;5030210;28;20639;-75
2024/03/03 09:43:22;;;;;;;15.57;11.27;;;10.00;98.40;;;;;;5030724;28;20631;-75
2024/03/03 09:45:51;;;;;;;13.93;11.63;;;10.30;99.90;;;;;;5027747;28;21204;-83
2024/03/03 09:48:21;;;;;;;14.20;11.17;;;10.20;97.90;;;;;;5028417;27;20615;-78
2024/03/03 09:50:51;;;;;;;14.33;11.50;;;10.20;99.90;;;;;;5030630;28;20627;-82
2024/03/03 09:53:19;;;;;;;15.17;11.63;;;10.30;97.30;;;;;;5028817;28;21214;-82
2024/03/03 09:55:46;;;;;;;18.93;11.93;;;10.50;97.10;;;;;;5029406;28;20631;-81
2024/03/03 09:58:13;;;;;;;16.63;11.70;;;10.60;96.80;;;;;;5030043;28;20809;-81
2024/03/03 10:00:41;;;;;;;13.23;10.03;;;10.70;96.60;;;;;;5027781;28;20628;-82
2024/03/03 10:03:08;;;;;;;19.10;12.20;;;10.80;96.20;;;;;;5044670;27;20650;-82
2024/03/03 10:05:39;;;;;;;17.77;12.70;;;10.90;96.00;;;;;;5029574;28;20751;-82
2024/03/03 10:08:06;;;;;;;14.97;10.83;;;10.50;95.80;;;;;;5028674;28;21473;-82
2024/03/03 10:10:35;;;;;;;9.77;8.77;;;11.10;95.70;;;;;;5029046;28;20663;-82
2024/03/03 10:13:04;;;;;;;12.40;9.87;;;11.80;95.80;;;;;;5028953;28;20678;-82
2024/03/03 10:15:31;;;;;;;12.13;10.23;;;11.30;95.60;;;;;;5027856;28;20643;-82
2024/03/03 10:18:00;;;;;;;16.13;11.17;;;11.40;94.50;;;;;;5028618;28;20638;-82
2024/03/03 10:20:29;;;;;;;12.87;9.90;;;11.50;94.60;;;;;;5028870;28;20678;-82
2024/03/03 10:22:57;;;;;;;13.87;11.80;;;11.60;94.30;;;;;;5028471;28;20638;-82
2024/03/03 10:25:25;;;;;;;14.23;11.50;;;11.70;94.50;;;;;;5031082;27;20638;-81
2024/03/03 10:27:52;;;;;;;10.37;8.83;;;11.80;94.90;;;;;;5045152;27;20626;-82
2024/03/03 10:30:22;;;;;;;10.70;9.50;;;12.00;93.30;;;;;;5040670;27;20630;-83
2024/03/03 10:32:49;;;;;;;12.20;9.10;;;12.20;93.30;;;;;;5028932;27;21580;-82
2024/03/03 10:35:18;;;;;;;10.17;7.60;;;12.10;92.90;;;;;;5027816;28;21060;-82
2024/03/03 10:37:52;;;;;;;12.33;9.13;;;12.70;93.20;;;;;;5040376;27;20633;-82
2024/03/03 10:40:20;;;;;;;10.13;7.40;;;12.20;93.60;;;;;;5030742;28;20734;-82
2024/03/03 10:42:47;;;;;;;10.13;7.93;;;12.30;92.20;;;;;;5032726;28;20727;-81
2024/03/03 10:45:14;;;;;;;8.07;6.87;;;12.40;92.60;;;;;;5032799;27;20638;-80
2024/03/03 10:47:41;;;;;;;8.83;7.93;;;12.40;92.10;;;;;;5097034;27;21209;-83
2024/03/03 10:50:09;;;;;;;7.50;6.57;;;12.40;92.20;;;;;;5028403;28;20738;-82
2024/03/03 10:52:38;;;;;;;10.73;9.57;;;12.60;92.70;;;;;;5031214;28;20658;-82
2024/03/03 10:55:07;;;;;;;9.43;7.97;;;12.20;92.30;;;;;;5030029;28;20650;-83
2024/03/03 10:57:36;;;;;;;10.83;8.40;;;12.80;92.20;;;;;;5048171;27;20785;-82
2024/03/03 11:00:05;;;;;;;12.40;8.40;;;12.90;96.10;;;;;;5060887;27;20615;-83
2024/03/03 11:02:35;;;;;;;7.83;7.03;;;12.90;91.80;;;;;;5034508;28;21009;-81
2024/03/03 11:05:03;;;;;;;9.83;7.53;;;12.90;96.00;;;;;;5031398;28;20615;-81
2024/03/03 11:07:30;;;;;;;7.57;5.97;;;13.00;90.90;;;;;;5080874;27;20626;-80
2024/03/03 11:09:58;;;;;;;8.50;6.53;;;13.10;90.30;;;;;;5045553;27;20627;-80
2024/03/03 11:12:27;;;;;;;7.43;6.47;;;13.10;89.40;;;;;;5046490;27;21066;-79
2024/03/03 11:14:57;;;;;;;6.23;5.63;;;13.20;89.40;;;;;;5081061;27;20619;-79
2024/03/03 11:17:29;;;;;;;5.80;5.20;;;13.30;87.90;;;;;;5024996;28;20634;-78
2024/03/03 11:20:01;;;;;;;7.07;5.07;;;13.10;87.10;;;;;;5033490;28;21080;-79
2024/03/03 11:22:35;;;;;;;5.60;5.10;;;13.30;86.30;;;;;;5040654;27;20851;-79
2024/03/03 11:25:04;;;;;;;7.53;5.07;;;13.40;84.50;;;;;;5048204;27;20687;-84
2024/03/03 11:27:31;;;;;;;5.53;4.50;;;13.40;84.10;;;;;;5032372;28;20624;-77
2024/03/03 11:29:59;;;;;;;7.70;4.83;;;13.30;89.60;;;;;;5033300;28;20758;-75
2024/03/03 11:32:27;;;;;;;7.73;5.50;;;13.50;85.10;;;;;;5037306;27;21025;-90
2024/03/03 11:34:55;;;;;;;6.20;5.07;;;13.40;85.50;;;;;;5054236;27;20614;-79
2024/03/03 11:37:24;;;;;;;6.00;5.40;;;13.60;81.90;;;;;;5026569;27;20634;-84
2024/03/03 11:39:54;;;;;;;4.33;3.93;;;13.60;82.40;;;;;;5031167;28;20628;-84
2024/03/03 11:42:22;;;;;;;5.10;4.60;;;13.60;81.60;;;;;;5047150;27;20620;-87
2024/03/03 11:44:52;;;;;;;4.30;3.90;;;13.60;82.10;;;;;;5029131;28;20727;-87
2024/03/03 11:47:24;;;;;;;6.07;5.47;;;13.70;82.70;;;;;;5031183;28;20996;-85
2024/03/03 11:49:52;;;;;;;6.03;4.43;;;13.80;81.60;;;;;;5047783;27;20623;-85
2024/03/03 11:52:42;;;;;;;4.77;4.33;;;15.20;84.00;;;;;;5029237;28;21315;-85
2024/03/03 11:55:10;;;;;;;6.00;5.17;;;14.00;84.00;;;;;;5024657;28;20628;-85
2024/03/03 11:57:40;;;;;;;6.47;5.67;;;13.90;84.50;;;;;;5031157;28;20635;-84
2024/03/03 12:00:13;;;;;;;5.53;4.43;;;15.00;90.50;;;;;;5031045;28;20646;-86
2024/03/03 12:02:41;;;;;;;6.90;5.07;;;14.20;84.30;;;;;;5029924;28;20623;-79
2024/03/03 12:05:09;;;;;;;7.03;5.23;;;14.30;84.10;;;;;;5030651;28;20674;-83
2024/03/03 12:07:41;;;;;;;6.27;4.83;;;14.30;83.40;;;;;;5027238;28;20629;-83
2024/03/03 12:10:14;;;;;;;4.97;3.70;;;14.30;83.30;;;;;;5026998;28;20624;-83
2024/03/03 12:12:41;;;;;;;6.50;4.10;;;14.30;82.40;;;;;;5047000;27;21145;-79
2024/03/03 12:15:09;;;;;;;4.83;4.37;;;14.40;82.70;;;;;;5087879;27;20686;-80
2024/03/03 12:17:36;;;;;;;4.93;4.43;;;14.50;82.50;;;;;;5043837;27;20623;-80
2024/03/03 12:20:06;;;;;;;5.43;4.70;;;14.50;82.30;;;;;;5027402;28;20627;-80
2024/03/03 12:22:34;;;;;;;6.33;4.17;;;14.60;82.10;;;;;;5025925;28;20694;-80
2024/03/03 12:25:01;;;;;;;5.33;4.83;;;14.60;82.40;;;;;;5026279;28;20734;-80
2024/03/03 12:27:28;;;;;;;4.70;4.30;;;14.60;83.90;;;;;;5027847;28;20627;-80
2024/03/03 12:29:59;;;;;;;4.60;4.07;;;14.60;82.30;;;;;;5029312;28;20652;-80
2024/03/03 12:32:27;;;;;;;6.30;5.70;;;14.70;82.00;;;;;;5028943;28;20640;-80
2024/03/03 12:34:56;;;;;;;5.47;4.70;;;14.70;82.20;;;;;;5028018;28;20635;-80
2024/03/03 12:37:24;;;;;;;4.77;3.87;;;14.90;81.10;;;;;;5025170;28;20627;-80
2024/03/03 12:39:52;;;;;;;4.50;4.10;;;15.00;78.70;;;;;;5028216;28;20982;-80